Time;durP1;ratioP1;P1;durP2;ratioP2;P2;SDS_P1;SDS_P2;PMS_P1;PMS_P2;Temp;Humidity;BMP_temperature;BMP_pressure;BME280_temperature;BME280_humidity;BME280_pressure;Samples;Min_cycle;Max_cycle;Signal;HPM_P1;HPM_P2
2024/01/06 00:00:23;;;;;;;36.60;16.95;;;;;;;4.46;100.00;97162.06;2537313;29;20044;-90
2024/01/06 00:01:40;;;;;;;41.80;19.63;;;;;;;4.33;100.00;97161.53;2548064;29;20103;-89
2024/01/06 00:02:56;;;;;;;51.05;23.95;;;;;;;4.43;100.00;97164.75;2552106;29;20047;-91
2024/01/06 00:04:12;;;;;;;49.83;23.17;;;;;;;4.43;100.00;97157.84;2546801;29;20035;-90
2024/01/06 00:05:28;;;;;;;56.33;23.73;;;;;;;4.50;100.00;97150.75;2554593;29;20499;-89
2024/01/06 00:06:44;;;;;;;52.45;24.20;;;;;;;4.57;100.00;97149.72;2548047;29;20057;-89
2024/01/06 00:08:00;;;;;;;46.90;23.60;;;;;;;4.76;100.00;97149.28;2538051;29;20412;-90
2024/01/06 00:09:15;;;;;;;51.50;24.02;;;;;;;4.87;100.00;97149.81;2532813;29;20043;-90
2024/01/06 00:10:32;;;;;;;50.33;23.20;;;;;;;4.83;100.00;97148.19;2531324;29;20051;-89
2024/01/06 00:11:48;;;;;;;47.67;20.10;;;;;;;4.85;100.00;97150.78;2531508;29;20060;-90
2024/01/06 00:13:04;;;;;;;47.45;20.30;;;;;;;4.50;100.00;97151.59;2531612;29;20047;-88
2024/01/06 00:14:20;;;;;;;38.72;18.20;;;;;;;4.69;100.00;97160.66;2546057;29;20040;-89
2024/01/06 00:15:37;;;;;;;38.67;18.85;;;;;;;4.51;100.00;97155.88;2547791;29;20519;-89
2024/01/06 00:16:53;;;;;;;37.00;17.92;;;;;;;4.48;100.00;97168.09;2552975;29;20048;-89
2024/01/06 00:18:09;;;;;;;37.58;17.27;;;;;;;4.49;100.00;97169.78;2545603;29;20035;-90
2024/01/06 00:19:25;;;;;;;31.90;15.73;;;;;;;4.43;100.00;97173.38;2546123;29;20043;-89
2024/01/06 00:20:41;;;;;;;36.15;15.27;;;;;;;4.25;100.00;97169.47;2553268;29;20043;-90
2024/01/06 00:21:57;;;;;;;35.05;16.90;;;;;;;4.41;100.00;97180.34;2553709;29;20050;-89
2024/01/06 00:23:13;;;;;;;39.72;16.05;;;;;;;4.28;100.00;97177.19;2553076;29;20043;-90
2024/01/06 00:24:29;;;;;;;38.17;16.45;;;;;;;4.40;100.00;97164.81;2557576;28;20487;-89
2024/01/06 00:25:45;;;;;;;35.53;17.17;;;;;;;4.64;100.00;97165.97;2554158;29;20027;-89
2024/01/06 00:27:01;;;;;;;35.17;16.38;;;;;;;4.53;100.00;97163.63;2552936;29;20046;-89
2024/01/06 00:28:17;;;;;;;38.17;16.13;;;;;;;4.57;100.00;97161.84;2542979;29;20142;-90
2024/01/06 00:29:33;;;;;;;34.20;15.23;;;;;;;4.66;100.00;97165.03;2541030;29;20050;-89
2024/01/06 00:30:49;;;;;;;33.80;15.70;;;;;;;4.73;100.00;97160.56;2538600;29;20515;-90
2024/01/06 00:32:05;;;;;;;29.00;14.77;;;;;;;4.74;100.00;97159.66;2535334;29;20132;-89
2024/01/06 00:33:21;;;;;;;30.67;15.82;;;;;;;4.80;100.00;97162.09;2548540;29;20044;-90
2024/01/06 00:34:37;;;;;;;36.20;15.75;;;;;;;4.81;100.00;97163.78;2551135;29;20151;-90
2024/01/06 00:35:55;;;;;;;28.98;13.30;;;;;;;4.73;100.00;97164.88;2553801;29;20055;-90
2024/01/06 00:37:10;;;;;;;27.65;13.52;;;;;;;4.77;100.00;97166.53;2541956;29;20051;-89
2024/01/06 00:38:26;;;;;;;28.58;13.32;;;;;;;4.75;100.00;97168.28;2550571;29;20054;-89
2024/01/06 00:39:42;;;;;;;34.50;14.27;;;;;;;4.79;100.00;97164.75;2541906;29;20048;-91
2024/01/06 00:40:58;;;;;;;31.25;14.57;;;;;;;4.81;100.00;97166.38;2545511;29;20042;-89
2024/01/06 00:42:14;;;;;;;30.48;13.75;;;;;;;4.72;100.00;97163.19;2536641;29;20054;-90
2024/01/06 00:43:30;;;;;;;27.98;13.02;;;;;;;4.54;100.00;97160.16;2541497;29;20055;-89
2024/01/06 00:44:46;;;;;;;31.98;14.18;;;;;;;4.42;100.00;97170.81;2557409;28;20023;-90
2024/01/06 00:46:03;;;;;;;27.55;13.95;;;;;;;4.47;100.00;97167.22;2553547;29;20047;-90
2024/01/06 00:47:19;;;;;;;32.13;14.88;;;;;;;4.43;100.00;97167.34;2536331;29;20036;-90
2024/01/06 00:48:35;;;;;;;29.45;14.40;;;;;;;4.40;100.00;97168.28;2551009;28;20125;-90
2024/01/06 00:49:51;;;;;;;29.10;14.57;;;;;;;4.41;100.00;97171.72;2551821;29;20044;-90
2024/01/06 00:51:06;;;;;;;32.20;14.90;;;;;;;4.42;100.00;97168.22;2557460;28;20046;-89
2024/01/06 00:52:22;;;;;;;32.03;15.07;;;;;;;4.31;100.00;97171.06;2554217;29;20043;-90
2024/01/06 00:53:38;;;;;;;30.55;14.55;;;;;;;4.15;100.00;97165.38;2541799;29;20609;-90
2024/01/06 00:54:54;;;;;;;31.02;14.23;;;;;;;4.10;100.00;97161.16;2533960;29;20054;-90
2024/01/06 00:56:10;;;;;;;26.13;13.18;;;;;;;4.11;100.00;97177.56;2548385;29;20039;-89
2024/01/06 00:57:26;;;;;;;34.35;15.88;;;;;;;4.46;100.00;97172.44;2544488;29;20083;-88
2024/01/06 00:58:42;;;;;;;34.40;16.92;;;;;;;4.47;100.00;97164.63;2540999;29;20044;-88
2024/01/06 00:59:58;;;;;;;33.58;15.93;;;;;;;4.53;100.00;97161.88;2548348;29;20042;-89
2024/01/06 01:01:14;;;;;;;33.70;16.15;;;;;;;4.57;100.00;97165.25;2546525;29;20058;-90
2024/01/06 01:02:30;;;;;;;30.38;15.93;;;;;;;4.62;100.00;97166.03;2553877;29;20027;-91
2024/01/06 01:03:46;;;;;;;29.63;14.18;;;;;;;4.65;100.00;97170.25;2548812;29;20044;-88
2024/01/06 01:05:03;;;;;;;28.70;13.43;;;;;;;4.71;100.00;97166.66;2547892;29;20118;-89
2024/01/06 01:06:19;;;;;;;25.63;12.93;;;;;;;4.90;100.00;97162.72;2544729;29;20578;-89
2024/01/06 01:07:35;;;;;;;24.25;12.93;;;;;;;4.80;100.00;97163.84;2555816;28;20031;-89
2024/01/06 01:08:52;;;;;;;25.77;12.68;;;;;;;4.95;100.00;97168.63;2545704;29;20039;-88
2024/01/06 01:10:09;;;;;;;26.73;12.48;;;;;;;4.87;100.00;97173.16;2548830;29;20090;-89
2024/01/06 01:11:25;;;;;;;28.30;11.93;;;;;;;4.97;100.00;97167.75;2554429;29;20041;-90
2024/01/06 01:12:41;;;;;;;25.42;12.98;;;;;;;4.91;100.00;97174.81;2555091;29;20063;-89
2024/01/06 01:13:57;;;;;;;25.63;12.48;;;;;;;4.95;100.00;97176.41;2556210;29;20043;-89
2024/01/06 01:15:13;;;;;;;22.92;11.85;;;;;;;4.98;100.00;97179.81;2555711;29;20039;-90
2024/01/06 01:16:29;;;;;;;23.58;11.95;;;;;;;4.85;100.00;97180.13;2544902;29;20047;-88
2024/01/06 01:17:45;;;;;;;26.40;12.25;;;;;;;4.90;100.00;97177.44;2524512;29;20048;-88
2024/01/06 01:19:02;;;;;;;23.98;11.15;;;;;;;4.90;100.00;97180.03;2535974;29;20038;-89
2024/01/06 01:20:18;;;;;;;26.13;12.85;;;;;;;4.86;100.00;97179.22;2554825;29;20039;-88
2024/01/06 01:21:34;;;;;;;22.90;11.20;;;;;;;4.84;100.00;97180.19;2545073;29;20055;-89
2024/01/06 01:22:50;;;;;;;26.27;12.27;;;;;;;4.86;100.00;97181.81;2544367;29;20047;-91
2024/01/06 01:24:06;;;;;;;26.40;12.18;;;;;;;4.94;100.00;97179.91;2537539;29;20043;-89
2024/01/06 01:25:21;;;;;;;25.83;12.73;;;;;;;4.94;100.00;97173.84;2547647;29;20044;-89
2024/01/06 01:26:38;;;;;;;26.33;12.38;;;;;;;4.97;100.00;97183.31;2555190;29;20064;-89
2024/01/06 01:27:54;;;;;;;26.60;12.90;;;;;;;5.02;100.00;97178.84;2549682;29;20409;-88
2024/01/06 01:29:10;;;;;;;29.35;12.68;;;;;;;5.03;100.00;97175.34;2557948;28;20040;-88
2024/01/06 01:30:27;;;;;;;23.00;12.30;;;;;;;5.00;100.00;97178.91;2560529;28;20050;-89
2024/01/06 01:31:43;;;;;;;23.23;11.95;;;;;;;5.06;100.00;97178.72;2556137;29;20635;-90
2024/01/06 01:32:59;;;;;;;23.90;11.60;;;;;;;5.09;100.00;97178.63;2544408;29;20036;-89
2024/01/06 01:34:15;;;;;;;25.08;12.68;;;;;;;5.12;100.00;97179.47;2552090;28;20125;-89
2024/01/06 01:35:31;;;;;;;24.35;11.65;;;;;;;5.07;100.00;97182.19;2545020;29;20048;-89
2024/01/06 01:36:47;;;;;;;25.33;12.07;;;;;;;5.06;100.00;97183.06;2538954;29;20070;-89
2024/01/06 01:38:03;;;;;;;26.52;12.40;;;;;;;5.13;100.00;97175.97;2543490;29;20500;-89
2024/01/06 01:39:19;;;;;;;27.55;12.55;;;;;;;5.09;100.00;97178.63;2546509;29;20055;-88
2024/01/06 01:40:35;;;;;;;22.55;11.63;;;;;;;5.07;100.00;97177.00;2550377;29;20031;-90
2024/01/06 01:41:51;;;;;;;23.73;11.52;;;;;;;4.87;100.00;97185.28;2555694;29;20031;-89
2024/01/06 01:43:18;;;;;;;22.88;12.38;;;;;;;4.66;100.00;97179.72;2544510;29;20564;-90
2024/01/06 01:44:33;;;;;;;24.67;12.02;;;;;;;4.60;100.00;97187.66;2549929;29;20094;-89
2024/01/06 01:45:57;;;;;;;21.70;11.95;;;;;;;4.46;100.00;97186.25;2557512;29;20035;-88
2024/01/06 01:47:18;;;;;;;25.55;12.45;;;;;;;4.44;100.00;97188.03;2553306;29;20042;-89
2024/01/06 01:48:34;;;;;;;30.67;13.82;;;;;;;4.73;100.00;97183.03;2540182;29;20428;-89
2024/01/06 01:49:50;;;;;;;24.05;13.02;;;;;;;4.75;100.00;97183.84;2543349;29;20470;-89
2024/01/06 01:51:07;;;;;;;27.55;13.50;;;;;;;4.66;100.00;97179.72;2546269;29;20039;-89
2024/01/06 01:52:23;;;;;;;29.33;13.23;;;;;;;4.56;100.00;97181.72;2548947;29;20106;-89
2024/01/06 01:53:40;;;;;;;25.83;12.38;;;;;;;4.76;100.00;97181.22;2554496;29;20066;-89
2024/01/06 01:54:57;;;;;;;24.98;11.60;;;;;;;4.81;100.00;97178.50;2538192;29;20051;-89
2024/01/06 01:56:13;;;;;;;20.73;11.23;;;;;;;5.02;100.00;97177.09;2532687;29;20110;-89
2024/01/06 01:57:29;;;;;;;23.52;11.80;;;;;;;5.11;100.00;97185.56;2538925;29;20062;-92
2024/01/06 01:58:46;;;;;;;21.88;11.18;;;;;;;5.07;100.00;97184.78;2542186;29;20138;-89
2024/01/06 02:00:03;;;;;;;23.60;10.70;;;;;;;5.08;100.00;97176.09;2557643;28;20055;-90
2024/01/06 02:01:19;;;;;;;21.70;10.55;;;;;;;5.07;100.00;97170.03;2539291;29;20052;-89
2024/01/06 02:02:35;;;;;;;21.08;10.68;;;;;;;5.05;100.00;97171.84;2525073;29;20071;-88
2024/01/06 02:03:51;;;;;;;23.75;11.00;;;;;;;5.13;100.00;97165.59;2546630;29;20349;-89
2024/01/06 02:05:07;;;;;;;24.83;10.85;;;;;;;5.07;100.00;97177.81;2556123;29;20496;-89
2024/01/06 02:06:23;;;;;;;23.42;11.57;;;;;;;5.08;100.00;97181.28;2538536;29;20053;-90
2024/01/06 02:07:40;;;;;;;24.63;11.73;;;;;;;5.02;100.00;97178.84;2543077;29;20542;-89
2024/01/06 02:08:56;;;;;;;24.23;11.23;;;;;;;5.08;100.00;97181.28;2548055;29;20077;-89
2024/01/06 02:10:12;;;;;;;23.38;11.07;;;;;;;5.07;100.00;97177.81;2554806;29;20101;-88
2024/01/06 02:11:28;;;;;;;25.10;11.23;;;;;;;4.98;100.00;97177.22;2556900;29;20031;-89
2024/01/06 02:12:44;;;;;;;20.23;10.88;;;;;;;4.71;100.00;97172.72;2554659;29;20527;-88
2024/01/06 02:14:00;;;;;;;18.75;10.38;;;;;;;4.54;100.00;97175.72;2549337;29;20039;-88
2024/01/06 02:15:16;;;;;;;20.45;10.40;;;;;;;4.41;100.00;97179.47;2559082;28;20035;-88
2024/01/06 02:16:32;;;;;;;24.10;11.63;;;;;;;4.66;100.00;97179.72;2555078;29;20431;-89
2024/01/06 02:17:48;;;;;;;21.52;11.80;;;;;;;4.68;100.00;97171.94;2536738;29;20048;-88
2024/01/06 02:19:10;;;;;;;23.48;11.85;;;;;;;4.75;100.00;97171.75;2548965;29;20040;-88
2024/01/06 02:20:29;;;;;;;26.60;12.95;;;;;;;4.94;100.00;97179.91;2562226;28;20038;-88
2024/01/06 02:21:57;;;;;;;23.65;12.82;;;;;;;4.99;100.00;97181.53;2553662;29;20078;-88
2024/01/06 02:23:13;;;;;;;25.50;11.75;;;;;;;5.05;100.00;97178.78;2549505;29;20313;-89
2024/01/06 02:24:29;;;;;;;21.83;12.82;;;;;;;5.10;100.00;97184.69;2545690;29;20537;-88
2024/01/06 02:25:45;;;;;;;25.40;13.05;;;;;;;5.13;100.00;97182.00;2548294;29;20066;-89
2024/01/06 02:27:01;;;;;;;28.67;13.15;;;;;;;5.15;100.00;97177.63;2539085;29;20040;-89
2024/01/06 02:28:17;;;;;;;26.25;12.20;;;;;;;5.07;100.00;97182.19;2537142;29;20051;-88
2024/01/06 02:29:33;;;;;;;27.10;11.73;;;;;;;5.07;100.00;97174.41;2537392;29;20044;-88
2024/01/06 02:30:50;;;;;;;25.88;12.77;;;;;;;5.13;100.00;97175.97;2545152;29;20867;-89
2024/01/06 02:32:06;;;;;;;24.35;11.85;;;;;;;5.19;100.00;97175.81;2538519;29;20111;-88
2024/01/06 02:33:24;;;;;;;24.70;12.10;;;;;;;5.22;100.00;97175.72;2545818;29;20614;-89
2024/01/06 02:34:40;;;;;;;24.80;12.48;;;;;;;5.21;100.00;97171.41;2537014;29;20099;-88
2024/01/06 02:35:55;;;;;;;25.05;11.07;;;;;;;5.20;100.00;97177.50;2552185;28;20118;-89
2024/01/06 02:37:11;;;;;;;22.60;12.05;;;;;;;5.19;100.00;97171.47;2544759;29;20051;-88
2024/01/06 02:38:28;;;;;;;26.65;12.65;;;;;;;5.22;100.00;97188.69;2546040;29;20046;-88
2024/01/06 02:39:44;;;;;;;29.33;13.50;;;;;;;5.08;100.00;97181.28;2550094;29;20035;-88
2024/01/06 02:41:00;;;;;;;27.45;12.52;;;;;;;5.20;100.00;97175.78;2539199;29;20694;-88
2024/01/06 02:42:16;;;;;;;26.98;13.27;;;;;;;5.29;100.00;97184.19;2547114;29;20073;-89
2024/01/06 02:43:32;;;;;;;29.38;13.90;;;;;;;5.29;100.00;97172.06;2547256;29;20118;-88
2024/01/06 02:44:48;;;;;;;32.72;15.02;;;;;;;5.33;100.00;97181.47;2537104;29;20524;-89
2024/01/06 02:46:04;;;;;;;30.42;13.40;;;;;;;5.36;100.00;97180.56;2541796;29;20036;-89
2024/01/06 02:47:20;;;;;;;31.63;14.30;;;;;;;5.36;100.00;97178.78;2548777;29;20794;-89
2024/01/06 02:48:36;;;;;;;34.65;15.23;;;;;;;5.38;100.00;97181.34;2547469;29;20031;-89
2024/01/06 02:49:51;;;;;;;29.98;13.50;;;;;;;5.35;100.00;97178.84;2546852;29;20086;-89
2024/01/06 02:51:07;;;;;;;28.90;13.70;;;;;;;5.40;100.00;97181.31;2548668;29;20051;-88
2024/01/06 02:52:23;;;;;;;25.20;13.00;;;;;;;5.37;100.00;97180.50;2553707;29;20103;-88
2024/01/06 02:53:39;;;;;;;28.15;12.65;;;;;;;5.35;100.00;97181.44;2547810;29;20086;-89
2024/01/06 02:54:55;;;;;;;27.52;13.23;;;;;;;5.43;100.00;97179.47;2545697;29;20051;-89
2024/01/06 02:56:12;;;;;;;24.23;12.52;;;;;;;5.33;100.00;97178.03;2553517;28;20058;-90
2024/01/06 02:57:30;;;;;;;27.85;13.68;;;;;;;5.39;100.00;97180.47;2547418;29;20083;-88
2024/01/06 02:58:45;;;;;;;22.02;11.93;;;;;;;5.42;100.00;97179.53;2523884;29;20044;-89
2024/01/06 03:00:02;;;;;;;24.27;12.38;;;;;;;5.34;100.00;97190.13;2527497;29;20568;-88
2024/01/06 03:01:18;;;;;;;25.08;12.40;;;;;;;5.28;100.00;97183.34;2523240;29;20139;-89
2024/01/06 03:02:36;;;;;;;26.20;12.55;;;;;;;5.33;100.00;97181.47;2533789;29;20028;-88
2024/01/06 03:03:52;;;;;;;23.13;12.73;;;;;;;5.32;100.00;97174.59;2533305;29;20044;-89
2024/01/06 03:05:09;;;;;;;26.10;13.55;;;;;;;5.29;100.00;97179.00;2519685;29;20429;-89
2024/01/06 03:06:24;;;;;;;33.58;14.45;;;;;;;5.23;100.00;97174.81;2517662;29;20048;-88
2024/01/06 03:07:40;;;;;;;30.63;15.93;;;;;;;5.16;100.00;97179.31;2527212;29;20040;-89
2024/01/06 03:08:56;;;;;;;37.80;15.13;;;;;;;5.17;100.00;97168.09;2539660;29;20032;-88
2024/01/06 03:10:12;;;;;;;33.75;15.13;;;;;;;5.13;100.00;97176.81;2539003;29;20532;-89
2024/01/06 03:11:28;;;;;;;33.47;15.68;;;;;;;5.15;100.00;97169.00;2529700;29;20040;-88
2024/01/06 03:12:44;;;;;;;37.78;16.38;;;;;;;5.22;100.00;97171.41;2527556;29;20032;-88
2024/01/06 03:14:00;;;;;;;39.33;16.73;;;;;;;5.22;100.00;97168.81;2539407;29;20043;-89
2024/01/06 03:15:16;;;;;;;40.25;16.92;;;;;;;5.11;100.00;97177.78;2529342;29;20060;-89
2024/01/06 03:16:33;;;;;;;38.28;16.80;;;;;;;5.11;100.00;97175.19;2526805;29;20512;-88
2024/01/06 03:17:52;;;;;;;32.15;15.68;;;;;;;5.18;100.00;97171.50;2533390;29;20056;-88
2024/01/06 03:19:08;;;;;;;30.40;15.35;;;;;;;5.22;100.00;97168.81;2523664;29;20083;-88
2024/01/06 03:20:24;;;;;;;27.58;14.02;;;;;;;5.33;100.00;97172.84;2523538;29;20045;-87
2024/01/06 03:21:40;;;;;;;27.42;14.07;;;;;;;5.26;100.00;97173.91;2517415;29;20508;-89
2024/01/06 03:22:56;;;;;;;28.42;14.57;;;;;;;5.06;100.00;97170.09;2533758;29;20036;-88
2024/01/06 03:24:12;;;;;;;32.13;15.30;;;;;;;5.02;100.00;97166.72;2529529;29;20084;-88
2024/01/06 03:25:28;;;;;;;37.45;15.57;;;;;;;5.02;100.00;97166.72;2527316;29;20044;-88
2024/01/06 03:26:44;;;;;;;33.75;15.27;;;;;;;5.02;100.00;97177.09;2521866;29;20071;-88
2024/01/06 03:28:00;;;;;;;32.40;15.88;;;;;;;5.14;100.00;97168.13;2517362;29;20053;-89
2024/01/06 03:29:16;;;;;;;32.88;15.35;;;;;;;5.17;100.00;97167.22;2526650;29;20036;-88
2024/01/06 03:30:32;;;;;;;34.00;15.55;;;;;;;5.04;100.00;97171.91;2523591;29;20044;-89
2024/01/06 03:31:48;;;;;;;32.90;15.43;;;;;;;4.91;100.00;97174.81;2527535;29;20044;-88
2024/01/06 03:33:06;;;;;;;34.03;14.80;;;;;;;4.87;100.00;97177.50;2523331;29;20764;-89
2024/01/06 03:34:22;;;;;;;32.58;16.27;;;;;;;5.02;100.00;97177.09;2527761;29;20048;-89
2024/01/06 03:35:38;;;;;;;33.15;15.55;;;;;;;4.91;100.00;97182.59;2539076;29;20048;-89
2024/01/06 03:36:54;;;;;;;32.95;15.35;;;;;;;4.84;100.00;97175.84;2529018;29;20417;-88
2024/01/06 03:38:10;;;;;;;31.83;14.95;;;;;;;4.87;100.00;97178.34;2522586;29;20048;-89
2024/01/06 03:39:26;;;;;;;31.50;15.85;;;;;;;4.66;100.00;97178.00;2529223;29;20052;-88
2024/01/06 03:40:42;;;;;;;32.92;16.10;;;;;;;4.71;100.00;97182.22;2517816;29;20048;-89
2024/01/06 03:41:59;;;;;;;35.80;16.48;;;;;;;4.61;100.00;97177.28;2536970;29;20042;-89
2024/01/06 03:43:15;;;;;;;32.05;15.98;;;;;;;4.71;100.00;97185.69;2538869;29;20036;-89
2024/01/06 03:44:33;;;;;;;31.83;15.65;;;;;;;4.73;100.00;97186.47;2532782;29;20032;-88
2024/01/06 03:45:49;;;;;;;32.80;15.32;;;;;;;4.63;100.00;97187.59;2542969;29;20244;-88
2024/01/06 03:47:06;;;;;;;37.67;16.60;;;;;;;4.71;100.00;97180.50;2528674;29;20202;-89
2024/01/06 03:48:22;;;;;;;35.75;16.27;;;;;;;4.88;100.00;97180.03;2517697;29;20087;-88
2024/01/06 03:49:38;;;;;;;33.22;15.32;;;;;;;5.01;100.00;97184.91;2536423;29;20833;-89
2024/01/06 03:50:54;;;;;;;31.33;15.00;;;;;;;5.13;100.00;97183.75;2528765;29;20055;-88
2024/01/06 03:52:10;;;;;;;32.67;16.08;;;;;;;5.10;100.00;97179.50;2522768;29;20092;-89
2024/01/06 03:53:26;;;;;;;33.25;15.55;;;;;;;5.09;100.00;97176.03;2526768;29;20050;-88
2024/01/06 03:54:42;;;;;;;30.75;15.27;;;;;;;5.12;100.00;97177.72;2532167;29;20040;-89
2024/01/06 03:55:58;;;;;;;30.08;13.85;;;;;;;5.11;100.00;97176.00;2532995;29;20051;-89
2024/01/06 03:57:14;;;;;;;32.40;15.15;;;;;;;5.10;100.00;97176.91;2534466;29;20090;-88
2024/01/06 03:58:30;;;;;;;32.03;14.90;;;;;;;5.08;100.00;97181.28;2532909;29;20056;-89
2024/01/06 03:59:45;;;;;;;33.03;15.18;;;;;;;5.16;100.00;97184.50;2536669;29;20070;-88
2024/01/06 04:01:02;;;;;;;30.20;13.95;;;;;;;5.15;100.00;97185.41;2542800;29;20044;-88
2024/01/06 04:02:17;;;;;;;35.35;15.82;;;;;;;5.16;100.00;97184.50;2532747;29;20488;-89
2024/01/06 04:03:34;;;;;;;36.65;15.70;;;;;;;5.19;100.00;97174.06;2527173;29;20052;-89
2024/01/06 04:04:50;;;;;;;30.25;14.50;;;;;;;5.27;100.00;97175.59;2526817;29;20047;-88
2024/01/06 04:06:06;;;;;;;30.77;14.95;;;;;;;5.26;100.00;97173.91;2527345;29;20054;-89
2024/01/06 04:07:22;;;;;;;31.17;14.43;;;;;;;5.30;100.00;97180.69;2542597;29;20051;-88
2024/01/06 04:08:41;;;;;;;28.42;14.73;;;;;;;5.17;100.00;97172.41;2548410;29;20472;-88
2024/01/06 04:09:57;;;;;;;29.10;15.13;;;;;;;5.05;100.00;97182.22;2542788;29;20073;-88
2024/01/06 04:11:13;;;;;;;33.65;14.82;;;;;;;4.83;100.00;97175.91;2542510;29;20066;-89
2024/01/06 04:12:29;;;;;;;37.58;15.70;;;;;;;4.91;100.00;97173.94;2532697;29;20457;-89
2024/01/06 04:13:45;;;;;;;35.80;16.40;;;;;;;5.04;100.00;97177.09;2532606;29;20040;-88
2024/01/06 04:15:01;;;;;;;38.03;16.65;;;;;;;5.05;100.00;97171.84;2532366;29;20052;-88
2024/01/06 04:16:17;;;;;;;40.05;17.02;;;;;;;5.20;100.00;97170.59;2546230;29;20035;-88
2024/01/06 04:17:33;;;;;;;36.60;16.85;;;;;;;5.23;100.00;97174.81;2548323;29;20051;-88
2024/01/06 04:18:48;;;;;;;50.33;16.17;;;;;;;5.07;100.00;97175.22;2542517;29;20517;-88
2024/01/06 04:20:05;;;;;;;36.53;16.25;;;;;;;5.02;100.00;97171.06;2542113;29;20038;-88
2024/01/06 04:21:22;;;;;;;50.67;16.73;;;;;;;5.06;100.00;97170.94;2542286;29;20443;-88
2024/01/06 04:22:38;;;;;;;54.80;16.35;;;;;;;5.05;100.00;97171.00;2542608;29;20512;-88
2024/01/06 04:23:55;;;;;;;90.13;17.58;;;;;;;5.13;100.00;97171.63;2551533;29;20058;-88
2024/01/06 04:25:12;;;;;;;93.93;18.13;;;;;;;5.11;100.00;97168.22;2547931;29;20555;-89
2024/01/06 04:26:28;;;;;;;118.63;20.98;;;;;;;5.15;100.00;97176.78;2542175;29;20039;-87
2024/01/06 04:27:46;;;;;;;78.25;16.17;;;;;;;4.98;100.00;97167.72;2531816;29;20039;-88
2024/01/06 04:29:02;;;;;;;93.45;18.25;;;;;;;5.06;100.00;97170.09;2533066;29;20087;-88
2024/01/06 04:30:19;;;;;;;94.15;15.13;;;;;;;5.08;100.00;97165.72;2536641;29;20032;-88
2024/01/06 04:31:35;;;;;;;106.43;17.38;;;;;;;5.05;100.00;97173.59;2539199;29;20131;-87
2024/01/06 04:32:51;;;;;;;107.78;14.10;;;;;;;4.95;100.00;97167.78;2517398;29;20049;-88
2024/01/06 04:34:07;;;;;;;94.40;14.73;;;;;;;4.82;100.00;97175.03;2531044;29;20106;-88
2024/01/06 04:35:24;;;;;;;63.03;13.43;;;;;;;4.95;100.00;97176.41;2533525;29;20044;-88
2024/01/06 04:36:39;;;;;;;68.40;14.10;;;;;;;5.09;100.00;97178.63;2536712;29;20051;-89
2024/01/06 04:37:55;;;;;;;72.05;15.50;;;;;;;5.15;100.00;97179.38;2532241;29;20243;-88
2024/01/06 04:39:13;;;;;;;48.53;14.63;;;;;;;5.06;100.00;97180.47;2546617;29;20043;-88
2024/01/06 04:40:30;;;;;;;41.85;13.80;;;;;;;5.01;100.00;97179.72;2548319;29;20043;-88
2024/01/06 04:41:46;;;;;;;31.17;12.75;;;;;;;4.78;100.00;97186.38;2542402;29;20107;-88
2024/01/06 04:43:03;;;;;;;38.58;13.52;;;;;;;4.99;100.00;97184.13;2543025;29;20423;-88
2024/01/06 04:44:20;;;;;;;36.67;12.45;;;;;;;4.97;100.00;97181.56;2544737;29;20036;-88
2024/01/06 04:45:37;;;;;;;37.08;13.43;;;;;;;4.93;100.00;97182.53;2534816;29;20571;-89
2024/01/06 04:46:53;;;;;;;26.92;12.48;;;;;;;4.97;100.00;97185.91;2548086;29;20053;-89
2024/01/06 04:48:09;;;;;;;29.58;12.73;;;;;;;4.94;100.00;97185.09;2540779;29;20115;-87
2024/01/06 04:49:26;;;;;;;28.10;13.40;;;;;;;4.94;100.00;97185.09;2534928;29;20036;-87
2024/01/06 04:50:42;;;;;;;25.92;12.27;;;;;;;4.90;100.00;97186.06;2529001;29;20508;-88
2024/01/06 04:51:58;;;;;;;27.35;12.57;;;;;;;4.88;100.00;97185.22;2538593;29;20224;-88
2024/01/06 04:53:14;;;;;;;25.88;12.63;;;;;;;4.89;100.00;97186.09;2544457;29;20039;-88
2024/01/06 04:54:30;;;;;;;26.48;12.93;;;;;;;4.73;100.00;97181.31;2553938;28;20035;-88
2024/01/06 04:55:46;;;;;;;29.27;13.73;;;;;;;4.79;100.00;97188.91;2550434;29;20412;-88
2024/01/06 04:57:02;;;;;;;25.15;13.07;;;;;;;4.83;100.00;97181.91;2540067;29;20043;-88
2024/01/06 04:58:18;;;;;;;28.98;14.05;;;;;;;4.84;100.00;97185.38;2530789;29;20149;-88
2024/01/06 04:59:34;;;;;;;30.27;13.05;;;;;;;4.80;100.00;97182.84;2538649;29;20139;-89
2024/01/06 05:00:52;;;;;;;30.67;13.98;;;;;;;4.86;100.00;97187.00;2539927;29;20141;-88
2024/01/06 05:02:08;;;;;;;30.27;14.02;;;;;;;4.88;100.00;97184.41;2534593;29;20091;-89
2024/01/06 05:03:24;;;;;;;28.77;13.43;;;;;;;4.89;100.00;97184.38;2540210;29;20400;-88
2024/01/06 05:04:40;;;;;;;26.50;13.25;;;;;;;4.90;100.00;97185.22;2540292;29;20028;-88
2024/01/06 05:05:56;;;;;;;24.23;12.25;;;;;;;4.66;100.00;97188.38;2540672;29;20047;-88
2024/01/06 05:07:12;;;;;;;27.65;14.25;;;;;;;4.85;100.00;97184.47;2540073;29;20048;-88
2024/01/06 05:08:30;;;;;;;33.08;14.30;;;;;;;4.88;100.00;97177.44;2534436;29;20040;-88
2024/01/06 05:09:46;;;;;;;27.02;13.63;;;;;;;4.86;100.00;97181.81;2534564;29;20135;-88
2024/01/06 05:11:02;;;;;;;26.38;12.85;;;;;;;4.82;100.00;97180.22;2540261;29;20048;-88
2024/01/06 05:12:18;;;;;;;29.98;13.25;;;;;;;4.89;100.00;97184.38;2549957;29;20499;-88
2024/01/06 05:13:34;;;;;;;26.55;12.73;;;;;;;4.89;100.00;97184.38;2540056;29;20087;-89
2024/01/06 05:14:50;;;;;;;23.15;12.43;;;;;;;4.93;100.00;97182.53;2528087;29;20041;-88
2024/01/06 05:16:08;;;;;;;25.15;12.57;;;;;;;5.00;100.00;97183.22;2530893;29;20172;-89
2024/01/06 05:17:24;;;;;;;24.70;12.35;;;;;;;5.04;100.00;97187.47;2540402;29;20680;-88
2024/01/06 05:18:40;;;;;;;22.80;11.88;;;;;;;4.86;100.00;97176.66;2549427;29;20054;-88
2024/01/06 05:19:56;;;;;;;23.20;12.88;;;;;;;4.80;100.00;97182.00;2539668;29;20525;-89
2024/01/06 05:21:12;;;;;;;26.02;12.60;;;;;;;4.95;100.00;97186.78;2544024;29;20126;-88
2024/01/06 05:22:28;;;;;;;24.38;11.98;;;;;;;5.05;100.00;97189.16;2529361;29;20048;-88
2024/01/06 05:23:44;;;;;;;22.80;11.88;;;;;;;5.08;100.00;97191.66;2518296;29;20155;-88
2024/01/06 05:25:00;;;;;;;21.48;11.55;;;;;;;5.10;100.00;97189.88;2534788;29;20044;-88
2024/01/06 05:26:16;;;;;;;24.67;11.85;;;;;;;5.13;100.00;97194.97;2530487;29;20051;-88
2024/01/06 05:27:32;;;;;;;26.75;12.60;;;;;;;5.13;100.00;97196.75;2534065;29;20393;-89
2024/01/06 05:28:48;;;;;;;24.42;12.20;;;;;;;5.10;100.00;97192.47;2530488;29;20136;-88
2024/01/06 05:30:06;;;;;;;25.40;11.93;;;;;;;5.10;100.00;97195.06;2528401;29;20493;-89
2024/01/06 05:31:22;;;;;;;23.27;11.63;;;;;;;5.12;100.00;97195.88;2533845;29;20517;-89
2024/01/06 05:32:38;;;;;;;22.23;11.35;;;;;;;5.19;100.00;97202.63;2542913;29;20521;-88
2024/01/06 05:33:54;;;;;;;28.67;13.15;;;;;;;5.25;100.00;97205.94;2539640;29;20048;-88
2024/01/06 05:35:10;;;;;;;23.25;12.52;;;;;;;5.27;100.00;97212.78;2529916;29;20052;-88
2024/01/06 05:36:26;;;;;;;24.65;12.40;;;;;;;5.26;100.00;97205.91;2543507;29;20056;-88
2024/01/06 05:37:42;;;;;;;23.27;12.30;;;;;;;5.30;100.00;97204.06;2545541;29;20032;-88
2024/01/06 05:39:00;;;;;;;24.45;12.27;;;;;;;5.32;100.00;97207.50;2549240;29;20051;-89
2024/01/06 05:40:16;;;;;;;25.02;12.02;;;;;;;5.32;100.00;97210.91;2540136;29;20032;-88
2024/01/06 05:41:37;;;;;;;23.10;12.20;;;;;;;5.30;100.00;97206.66;2528520;29;20501;-88
2024/01/06 05:42:55;;;;;;;23.02;12.50;;;;;;;5.35;100.00;97212.59;2532161;29;20051;-89
2024/01/06 05:44:11;;;;;;;21.90;11.95;;;;;;;5.28;100.00;97205.84;2534222;29;20028;-88
2024/01/06 05:45:27;;;;;;;26.85;13.02;;;;;;;5.29;100.00;97212.72;2542978;29;20063;-88
2024/01/06 05:46:43;;;;;;;24.17;12.13;;;;;;;5.30;100.00;97212.72;2529860;29;20049;-88
2024/01/06 05:47:59;;;;;;;23.63;12.05;;;;;;;5.30;100.00;97214.44;2537748;29;20051;-88
2024/01/06 05:49:15;;;;;;;25.83;12.43;;;;;;;5.26;100.00;97213.69;2539875;29;20512;-88
2024/01/06 05:50:31;;;;;;;23.48;11.52;;;;;;;5.31;100.00;97218.75;2529659;29;20066;-88